createdAt,value
2023-03-12T00:00:10.738Z,23.90
2023-03-12T00:02:37.830Z,24.30
2023-03-12T00:05:05.407Z,24.70
2023-03-12T00:07:32.866Z,24.90
2023-03-12T00:09:59.908Z,24.70
2023-03-12T00:12:26.880Z,24.50
2023-03-12T00:14:54.034Z,24.20
2023-03-12T00:17:21.152Z,23.80
2023-03-12T00:19:52.737Z,24.50
2023-03-12T00:22:23.223Z,24.30
2023-03-12T00:24:57.239Z,24.20
2023-03-12T00:27:25.972Z,24.00
2023-03-12T00:29:52.941Z,23.90
2023-03-12T00:32:20.721Z,23.80
2023-03-12T00:34:52.326Z,24.10
2023-03-12T00:37:19.706Z,24.00
2023-03-12T00:39:46.762Z,23.90
2023-03-12T00:42:14.159Z,24.80
2023-03-12T00:44:41.177Z,24.60
2023-03-12T00:47:08.206Z,24.30
2023-03-12T00:49:35.247Z,23.50
2023-03-12T00:52:02.645Z,23.70
2023-03-12T00:54:29.574Z,23.60
2023-03-12T00:56:56.811Z,23.30
2023-03-12T00:59:23.818Z,23.00
2023-03-12T01:01:50.867Z,22.80
2023-03-12T01:04:18.203Z,22.90
2023-03-12T01:06:45.605Z,23.20
2023-03-12T01:09:12.627Z,22.60
2023-03-12T01:11:39.857Z,23.10
2023-03-12T01:14:08.444Z,23.30
2023-03-12T01:16:35.940Z,22.90
2023-03-12T01:19:03.386Z,22.50
2023-03-12T01:21:31.280Z,22.60
2023-03-12T01:23:58.902Z,22.30
2023-03-12T01:26:26.369Z,22.70
2023-03-12T01:28:53.334Z,22.30
2023-03-12T01:31:20.844Z,21.90
2023-03-12T01:33:52.253Z,21.50
2023-03-12T01:36:25.301Z,21.30
2023-03-12T01:38:54.213Z,21.50
2023-03-12T01:41:22.209Z,21.60
2023-03-12T01:43:49.316Z,21.20
2023-03-12T01:46:31.865Z,21.40
2023-03-12T01:49:19.367Z,21.50
2023-03-12T01:52:10.827Z,21.80
2023-03-12T01:54:49.348Z,21.50
2023-03-12T01:57:21.934Z,21.70
2023-03-12T02:00:08.017Z,21.70
2023-03-12T02:02:36.762Z,21.60
2023-03-12T02:05:18.852Z,21.10
2023-03-12T02:07:46.405Z,20.90
2023-03-12T02:10:13.433Z,21.10
2023-03-12T02:12:40.454Z,21.40
2023-03-12T02:15:08.325Z,21.60
2023-03-12T02:17:37.085Z,21.90
2023-03-12T02:20:22.957Z,21.60
2023-03-12T02:23:00.995Z,21.40
2023-03-12T02:25:44.170Z,21.30
2023-03-12T02:28:14.887Z,21.30
2023-03-12T02:30:46.079Z,22.00
2023-03-12T02:33:15.410Z,21.40
2023-03-12T02:35:43.159Z,21.10
2023-03-12T02:38:35.159Z,21.20
2023-03-12T02:41:19.078Z,21.20
2023-03-12T02:43:57.162Z,20.90
2023-03-12T02:46:24.547Z,20.60
2023-03-12T02:48:52.761Z,20.80
2023-03-12T02:51:19.816Z,20.80
2023-03-12T02:53:46.882Z,20.80
2023-03-12T02:56:13.823Z,21.20
2023-03-12T02:58:43.126Z,20.80
2023-03-12T03:01:10.074Z,20.60
2023-03-12T03:03:37.083Z,20.70
2023-03-12T03:06:04.354Z,20.90
2023-03-12T03:08:31.297Z,20.90
2023-03-12T03:10:59.179Z,22.10
2023-03-12T03:13:26.229Z,22.10
2023-03-12T03:15:53.718Z,21.70
2023-03-12T03:18:20.822Z,21.70
2023-03-12T03:21:05.616Z,21.30
2023-03-12T03:23:33.487Z,21.50
2023-03-12T03:26:00.603Z,21.30
2023-03-12T03:28:29.392Z,21.40
2023-03-12T03:31:02.323Z,21.50
2023-03-12T03:33:31.182Z,21.60
2023-03-12T03:35:59.702Z,21.30
2023-03-12T03:38:28.387Z,21.40
2023-03-12T03:40:56.126Z,21.40
2023-03-12T03:43:23.743Z,21.80
2023-03-12T03:46:03.990Z,21.40
2023-03-12T03:48:31.525Z,21.00
2023-03-12T03:51:03.149Z,21.00
2023-03-12T03:53:30.287Z,21.40
2023-03-12T03:55:57.254Z,21.20
2023-03-12T03:58:24.552Z,21.30
2023-03-12T04:00:51.702Z,21.10
2023-03-12T04:03:18.924Z,21.30
2023-03-12T04:05:46.111Z,21.10
2023-03-12T04:08:14.231Z,21.00
2023-03-12T04:10:41.378Z,20.60
2023-03-12T04:13:08.391Z,20.50
2023-03-12T04:15:35.451Z,20.40
2023-03-12T04:18:02.759Z,20.00
2023-03-12T04:20:29.919Z,20.00
2023-03-12T04:22:58.563Z,19.60
2023-03-12T04:25:25.528Z,19.80
2023-03-12T04:27:52.480Z,20.70
2023-03-12T04:30:19.767Z,20.80
2023-03-12T04:32:46.864Z,21.00
2023-03-12T04:35:14.131Z,20.90
2023-03-12T04:37:41.208Z,20.50
2023-03-12T04:40:09.916Z,21.00
2023-03-12T04:42:37.332Z,21.90
2023-03-12T04:45:06.788Z,20.80
2023-03-12T04:47:34.753Z,21.40
2023-03-12T04:50:01.705Z,20.90
2023-03-12T04:52:28.819Z,21.20
2023-03-12T04:54:55.979Z,21.10
2023-03-12T04:57:23.027Z,21.10
2023-03-12T04:59:50.040Z,20.90
2023-03-12T05:02:17.058Z,20.70
2023-03-12T05:04:44.334Z,21.00
2023-03-12T05:07:11.375Z,21.20
2023-03-12T05:09:38.511Z,21.40
2023-03-12T05:12:05.866Z,20.70
2023-03-12T05:14:33.018Z,20.40
2023-03-12T05:17:00.112Z,20.60
2023-03-12T05:19:27.261Z,20.90
2023-03-12T05:21:54.439Z,20.80
2023-03-12T05:24:22.826Z,20.50
2023-03-12T05:26:49.993Z,20.50
2023-03-12T05:29:17.130Z,20.50
2023-03-12T05:31:44.331Z,20.00
2023-03-12T05:34:14.758Z,20.20
2023-03-12T05:36:42.094Z,21.20
2023-03-12T05:39:09.024Z,21.90
2023-03-12T05:41:36.040Z,21.20
2023-03-12T05:44:03.187Z,21.10
2023-03-12T05:46:30.237Z,21.30
2023-03-12T05:48:57.199Z,21.00
2023-03-12T05:51:24.348Z,21.10
2023-03-12T05:53:51.536Z,21.50
2023-03-12T05:56:19.016Z,22.00
2023-03-12T05:58:50.093Z,21.40
2023-03-12T06:01:19.233Z,22.00
2023-03-12T06:03:46.843Z,22.70
2023-03-12T06:06:14.470Z,22.30
2023-03-12T06:08:42.666Z,22.00
2023-03-12T06:11:09.698Z,21.50
2023-03-12T06:13:36.941Z,21.50
2023-03-12T06:16:17.226Z,21.10
2023-03-12T06:18:44.614Z,20.60
2023-03-12T06:21:20.758Z,20.00
2023-03-12T06:23:50.994Z,19.90
2023-03-12T06:26:18.475Z,20.10
2023-03-12T06:28:46.622Z,20.30
2023-03-12T06:31:13.885Z,20.10
2023-03-12T06:33:40.898Z,20.00
2023-03-12T06:36:11.349Z,20.20
2023-03-12T06:38:38.858Z,20.30
2023-03-12T06:41:17.140Z,19.80
2023-03-12T06:43:45.215Z,19.90
2023-03-12T06:46:14.396Z,20.60
2023-03-12T06:48:42.066Z,20.30
2023-03-12T06:51:11.117Z,20.40
2023-03-12T06:53:42.126Z,20.70
2023-03-12T06:56:10.032Z,20.60
2023-03-12T06:58:37.367Z,20.20
2023-03-12T07:01:05.372Z,19.90
2023-03-12T07:03:32.635Z,19.90
2023-03-12T07:06:00.416Z,19.70
2023-03-12T07:08:31.312Z,19.90
2023-03-12T07:11:01.632Z,20.70
2023-03-12T07:13:29.406Z,20.90
2023-03-12T07:15:56.693Z,20.70
2023-03-12T07:18:23.973Z,20.50
2023-03-12T07:20:52.060Z,20.10
2023-03-12T07:23:19.322Z,19.30
2023-03-12T07:25:47.983Z,18.80
2023-03-12T07:28:15.513Z,18.70
2023-03-12T07:30:42.924Z,18.50
2023-03-12T07:33:12.369Z,18.50
2023-03-12T07:35:40.035Z,18.90
2023-03-12T07:38:07.951Z,18.10
2023-03-12T07:40:37.869Z,18.30
2023-03-12T07:43:14.094Z,18.30
2023-03-12T07:45:41.406Z,19.40
2023-03-12T07:48:08.724Z,19.20
2023-03-12T07:50:37.072Z,19.80
2023-03-12T07:53:05.219Z,19.40
2023-03-12T07:55:33.553Z,18.80
2023-03-12T07:58:00.835Z,18.40
2023-03-12T08:00:29.858Z,18.20
2023-03-12T08:02:57.615Z,18.50
2023-03-12T08:05:25.394Z,18.80
2023-03-12T08:07:52.858Z,18.50
2023-03-12T08:10:21.172Z,18.30
2023-03-12T08:12:49.013Z,18.10
2023-03-12T08:15:16.997Z,18.30
2023-03-12T08:17:44.370Z,17.90
2023-03-12T08:20:12.489Z,18.10
2023-03-12T08:22:40.179Z,17.80
2023-03-12T08:25:08.534Z,17.90
2023-03-12T08:27:36.032Z,18.10
2023-03-12T08:30:04.221Z,17.90
2023-03-12T08:32:31.910Z,18.00
2023-03-12T08:34:59.020Z,17.90
2023-03-12T08:37:26.196Z,17.70
2023-03-12T08:39:53.182Z,17.60
2023-03-12T08:42:20.162Z,17.80
2023-03-12T08:44:47.250Z,18.10
2023-03-12T08:47:14.213Z,18.10
2023-03-12T08:49:41.172Z,18.20
2023-03-12T08:52:08.395Z,17.40
2023-03-12T08:54:35.468Z,17.40
2023-03-12T08:57:02.593Z,17.30
2023-03-12T08:59:29.672Z,17.10
2023-03-12T09:01:56.695Z,16.50
2023-03-12T09:04:23.711Z,16.40
2023-03-12T09:06:50.790Z,16.20
2023-03-12T09:09:17.758Z,16.30
2023-03-12T09:11:45.461Z,16.10
2023-03-12T09:14:53.963Z,16.00
2023-03-12T09:17:01.914Z,16.70
2023-03-12T09:19:29.359Z,16.20
2023-03-12T09:21:56.485Z,16.00
2023-03-12T09:24:23.657Z,15.50
2023-03-12T09:26:50.593Z,14.90
2023-03-12T09:29:17.536Z,14.60
2023-03-12T09:31:44.645Z,15.50
2023-03-12T09:34:11.577Z,15.40
2023-03-12T09:36:38.557Z,16.00
2023-03-12T09:39:06.112Z,15.90
2023-03-12T09:41:39.049Z,16.80
2023-03-12T09:44:29.273Z,16.20
2023-03-12T09:47:01.244Z,15.80
2023-03-12T09:49:28.434Z,16.70
2023-03-12T09:51:58.599Z,16.30
2023-03-12T09:54:33.779Z,17.30
2023-03-12T09:57:09.142Z,18.00
2023-03-12T09:59:37.089Z,18.00
2023-03-12T10:02:21.664Z,18.50
2023-03-12T10:05:00.042Z,18.60
2023-03-12T10:07:28.088Z,17.70
2023-03-12T10:10:19.317Z,17.30
2023-03-12T10:13:11.460Z,16.50
2023-03-12T10:15:47.452Z,16.30
2023-03-12T10:18:17.299Z,16.00
2023-03-12T10:21:01.376Z,16.00
2023-03-12T10:24:02.187Z,15.40
2023-03-12T10:26:50.014Z,15.60
2023-03-12T10:29:30.080Z,16.00
2023-03-12T10:32:07.715Z,16.20
2023-03-12T10:34:46.286Z,15.90
2023-03-12T10:37:25.119Z,15.80
2023-03-12T10:39:54.149Z,15.90
2023-03-12T10:42:23.957Z,15.50
2023-03-12T10:45:01.422Z,15.60
2023-03-12T10:47:36.021Z,15.70
2023-03-12T10:50:34.425Z,15.50
2023-03-12T10:53:32.192Z,14.80
2023-03-12T10:56:09.371Z,14.90
2023-03-12T10:58:41.811Z,15.00
2023-03-12T11:01:31.727Z,14.90
2023-03-12T11:04:18.778Z,14.70
2023-03-12T11:07:19.582Z,15.30
2023-03-12T11:09:46.736Z,15.10
2023-03-12T11:12:29.728Z,15.30
2023-03-12T11:14:58.113Z,15.60
2023-03-12T11:17:29.944Z,15.60
2023-03-12T11:19:56.972Z,15.60
2023-03-12T11:22:32.703Z,15.30
2023-03-12T11:25:02.215Z,15.50
2023-03-12T11:27:44.434Z,15.20
2023-03-12T11:30:17.978Z,15.10
2023-03-12T11:32:49.670Z,15.00
2023-03-12T11:35:21.044Z,15.00
2023-03-12T11:37:57.360Z,14.90
2023-03-12T11:40:59.022Z,15.10
2023-03-12T11:43:43.906Z,15.70
2023-03-12T11:46:20.218Z,15.40
2023-03-12T11:49:25.034Z,15.20
2023-03-12T11:52:19.971Z,14.90
2023-03-12T11:55:05.541Z,15.30
2023-03-12T11:57:51.200Z,15.20
2023-03-12T12:00:23.191Z,15.00
2023-03-12T12:03:16.825Z,15.10
2023-03-12T12:06:05.293Z,15.20
2023-03-12T12:09:05.412Z,14.30
2023-03-12T12:11:45.332Z,14.40
2023-03-12T12:15:09.676Z,14.50
2023-03-12T12:18:07.361Z,14.60
2023-03-12T12:21:18.914Z,14.70
2023-03-12T12:24:18.055Z,15.20
2023-03-12T12:26:55.288Z,15.80
2023-03-12T12:29:45.338Z,15.90
2023-03-12T12:32:21.253Z,16.10
2023-03-12T12:35:12.988Z,16.30
2023-03-12T12:37:52.927Z,15.90
2023-03-12T12:40:34.066Z,15.80
2023-03-12T12:43:19.887Z,15.20
2023-03-12T12:45:50.137Z,15.20
2023-03-12T12:48:28.998Z,15.60
2023-03-12T12:51:00.183Z,15.90
2023-03-12T12:53:37.687Z,16.60
2023-03-12T12:56:15.453Z,16.80
2023-03-12T12:58:54.541Z,16.50
2023-03-12T13:01:21.815Z,16.40
2023-03-12T13:03:50.279Z,16.30
2023-03-12T13:06:18.011Z,15.90
2023-03-12T13:08:47.805Z,15.40
2023-03-12T13:11:20.672Z,15.90
2023-03-12T13:14:03.667Z,15.30
2023-03-12T13:16:33.902Z,15.60
2023-03-12T13:19:20.335Z,15.40
2023-03-12T13:22:02.247Z,15.40
2023-03-12T13:24:35.500Z,15.00
2023-03-12T13:27:23.626Z,15.10
2023-03-12T13:29:56.976Z,15.30
2023-03-12T13:32:37.749Z,15.50
2023-03-12T13:35:16.600Z,15.40
2023-03-12T13:37:52.699Z,15.60
2023-03-12T13:40:51.972Z,15.40
2023-03-12T13:43:37.590Z,15.60
2023-03-12T13:46:15.573Z,15.70
2023-03-12T13:48:49.891Z,16.10
2023-03-12T13:51:25.021Z,15.50
2023-03-12T13:54:17.518Z,15.80
2023-03-12T13:56:54.906Z,15.80
2023-03-12T13:59:24.721Z,16.30
2023-03-12T14:01:56.988Z,15.90
2023-03-12T14:04:41.877Z,16.20
2023-03-12T14:07:32.160Z,16.90
2023-03-12T14:10:41.926Z,16.40
2023-03-12T14:13:28.394Z,16.20
2023-03-12T14:16:25.518Z,15.90
2023-03-12T14:18:54.032Z,15.60
2023-03-12T14:21:23.892Z,15.60
2023-03-12T14:23:58.040Z,15.90
2023-03-12T14:26:29.362Z,16.20
2023-03-12T14:29:28.572Z,17.20
2023-03-12T14:31:59.210Z,18.30
2023-03-12T14:34:30.745Z,19.30
2023-03-12T14:37:06.526Z,18.90
2023-03-12T14:39:52.065Z,19.40
2023-03-12T14:42:26.148Z,19.60
2023-03-12T14:45:06.624Z,19.20
2023-03-12T14:47:54.761Z,19.80
2023-03-12T14:50:24.986Z,19.60
2023-03-12T14:52:52.660Z,19.50
2023-03-12T14:55:23.876Z,19.70
2023-03-12T14:58:07.170Z,19.60
2023-03-12T15:00:34.623Z,19.90
2023-03-12T15:03:05.601Z,19.80
2023-03-12T15:05:34.738Z,20.90
2023-03-12T15:08:04.325Z,21.20
2023-03-12T15:10:32.966Z,21.70
2023-03-12T15:13:02.715Z,21.40
2023-03-12T15:15:48.568Z,21.30
2023-03-12T15:18:30.053Z,21.50
2023-03-12T15:20:59.271Z,21.10
2023-03-12T15:23:27.961Z,20.90
2023-03-12T15:26:13.907Z,20.80
2023-03-12T15:28:41.740Z,20.10
2023-03-12T15:31:16.522Z,19.90
2023-03-12T15:33:44.725Z,19.10
2023-03-12T15:36:23.118Z,19.30
2023-03-12T15:38:55.064Z,18.90
2023-03-12T15:41:40.359Z,18.60
2023-03-12T15:44:14.721Z,18.00
2023-03-12T15:46:47.993Z,18.00
2023-03-12T15:49:27.283Z,18.10
2023-03-12T15:52:24.838Z,18.10
2023-03-12T15:55:13.477Z,17.40
2023-03-12T15:57:52.274Z,17.20
2023-03-12T16:00:21.682Z,16.80
2023-03-12T16:03:08.994Z,16.60
2023-03-12T16:05:39.173Z,16.50
2023-03-12T16:08:40.178Z,16.50
2023-03-12T16:11:18.705Z,16.30
2023-03-12T16:13:52.825Z,16.30
2023-03-12T16:16:20.001Z,16.40
2023-03-12T16:18:48.142Z,16.40
2023-03-12T16:21:15.160Z,16.30
2023-03-12T16:23:42.164Z,16.10
2023-03-12T16:26:09.227Z,16.30
2023-03-12T16:28:37.059Z,16.40
2023-03-12T16:31:10.542Z,16.20
2023-03-12T16:33:37.732Z,16.20
2023-03-12T16:36:07.030Z,15.90
2023-03-12T16:38:34.115Z,15.70
2023-03-12T16:41:01.097Z,15.70
2023-03-12T16:43:30.762Z,15.80
2023-03-12T16:45:58.029Z,15.90
2023-03-12T16:48:26.980Z,15.80
2023-03-12T16:50:56.816Z,15.90
2023-03-12T16:53:24.637Z,15.90
2023-03-12T16:55:55.430Z,16.10
2023-03-12T16:58:25.017Z,16.20
2023-03-12T17:00:53.934Z,16.50
2023-03-12T17:03:45.774Z,16.40
2023-03-12T17:06:19.049Z,16.20
2023-03-12T17:08:47.368Z,16.20
2023-03-12T17:11:19.304Z,16.20
2023-03-12T17:13:53.220Z,16.50
2023-03-12T17:16:20.840Z,16.60
2023-03-12T17:18:47.850Z,17.50
2023-03-12T17:21:16.343Z,17.20
2023-03-12T17:23:44.175Z,17.20
2023-03-12T17:26:11.137Z,17.20
2023-03-12T17:28:38.326Z,17.40
2023-03-12T17:31:05.996Z,17.70
2023-03-12T17:33:33.311Z,18.00
2023-03-12T17:36:06.716Z,18.20
2023-03-12T17:38:34.113Z,18.40
2023-03-12T17:41:02.150Z,18.70
2023-03-12T17:43:29.727Z,19.00
2023-03-12T17:45:56.771Z,19.70
2023-03-12T17:48:24.833Z,20.40
2023-03-12T17:50:51.966Z,21.30
2023-03-12T17:53:18.991Z,21.40
2023-03-12T17:55:47.549Z,21.40
2023-03-12T17:58:14.728Z,23.10
2023-03-12T18:00:41.708Z,25.30
2023-03-12T18:03:08.708Z,26.20
2023-03-12T18:05:41.624Z,26.10
2023-03-12T18:08:09.099Z,26.20
2023-03-12T18:10:39.130Z,26.60
2023-03-12T18:13:06.806Z,26.40
2023-03-12T18:15:33.992Z,25.50
2023-03-12T18:18:01.158Z,24.20
2023-03-12T18:20:37.656Z,22.60
2023-03-12T18:23:06.016Z,21.70
2023-03-12T18:25:33.020Z,20.70
2023-03-12T18:28:00.170Z,20.50
2023-03-12T18:30:28.403Z,20.90
2023-03-12T18:32:55.571Z,22.90
2023-03-12T18:35:22.964Z,25.30
2023-03-12T18:37:52.045Z,26.70
2023-03-12T18:40:19.094Z,27.20
2023-03-12T18:42:46.109Z,26.60
2023-03-12T18:45:13.941Z,25.00
2023-03-12T18:47:42.117Z,23.60
2023-03-12T18:50:10.784Z,23.30
2023-03-12T18:52:38.157Z,22.90
2023-03-12T18:55:05.864Z,22.30
2023-03-12T18:57:37.149Z,22.00
2023-03-12T19:00:04.657Z,21.80
2023-03-12T19:02:31.921Z,21.50
2023-03-12T19:04:59.039Z,21.40
2023-03-12T19:07:26.085Z,21.40
2023-03-12T19:09:53.066Z,21.40
2023-03-12T19:12:20.097Z,21.00
2023-03-12T19:14:47.182Z,21.40
2023-03-12T19:17:14.308Z,21.50
2023-03-12T19:19:44.578Z,21.20
2023-03-12T19:22:11.712Z,21.10
2023-03-12T19:24:38.700Z,20.90
2023-03-12T19:27:05.814Z,21.10
2023-03-12T19:29:33.311Z,20.90
2023-03-12T19:32:00.423Z,20.60
2023-03-12T19:34:27.682Z,20.60
2023-03-12T19:36:54.922Z,20.60
2023-03-12T19:39:22.000Z,20.90
2023-03-12T19:41:50.101Z,21.10
2023-03-12T19:44:17.297Z,21.30
2023-03-12T19:46:44.351Z,21.50
2023-03-12T19:49:11.325Z,21.60
2023-03-12T19:51:40.354Z,21.70
2023-03-12T19:54:07.797Z,21.50
2023-03-12T19:56:34.808Z,21.80
2023-03-12T19:59:04.216Z,21.50
2023-03-12T20:01:32.358Z,21.30
2023-03-12T20:03:59.356Z,21.30
2023-03-12T20:06:26.528Z,21.70
2023-03-12T20:08:53.458Z,21.60
2023-03-12T20:11:20.930Z,21.90
2023-03-12T20:13:48.236Z,21.90
2023-03-12T20:16:17.102Z,23.00
2023-03-12T20:18:44.144Z,23.30
2023-03-12T20:21:11.420Z,22.90
2023-03-12T20:23:38.551Z,22.80
2023-03-12T20:26:05.592Z,22.50
2023-03-12T20:28:32.610Z,23.10
2023-03-12T20:31:14.120Z,23.70
2023-03-12T20:33:41.824Z,23.70
2023-03-12T20:36:11.204Z,23.70
2023-03-12T20:38:38.524Z,23.80
2023-03-12T20:41:12.084Z,23.50
2023-03-12T20:43:40.270Z,23.50
2023-03-12T20:46:07.722Z,23.70
2023-03-12T20:48:34.862Z,23.70
2023-03-12T20:51:02.138Z,22.70
2023-03-12T20:53:29.127Z,22.20
2023-03-12T20:55:56.825Z,21.80
2023-03-12T20:58:24.248Z,21.40
2023-03-12T21:00:51.784Z,21.40
2023-03-12T21:03:19.437Z,21.80
2023-03-12T21:05:57.950Z,21.20
2023-03-12T21:08:25.973Z,21.00
2023-03-12T21:10:53.707Z,20.90
2023-03-12T21:13:22.824Z,21.40
2023-03-12T21:15:50.704Z,21.60
2023-03-12T21:18:18.533Z,21.90
2023-03-12T21:20:45.833Z,21.80
2023-03-12T21:23:12.935Z,23.40
2023-03-12T21:25:41.002Z,24.40
2023-03-12T21:28:09.827Z,24.90
2023-03-12T21:30:37.794Z,24.50
2023-03-12T21:33:05.871Z,24.60
2023-03-12T21:35:32.998Z,25.30
2023-03-12T21:38:00.113Z,24.80
2023-03-12T21:40:27.267Z,24.00
2023-03-12T21:42:54.331Z,23.90
2023-03-12T21:45:21.813Z,24.00
2023-03-12T21:47:48.789Z,23.50
2023-03-12T21:50:15.795Z,23.20
2023-03-12T21:52:47.890Z,22.20
2023-03-12T21:55:16.300Z,22.10
2023-03-12T21:57:45.338Z,21.70
2023-03-12T22:00:13.398Z,22.00
2023-03-12T22:02:42.568Z,22.10
2023-03-12T22:05:10.312Z,21.90
2023-03-12T22:07:37.887Z,21.80
2023-03-12T22:10:07.273Z,22.00
2023-03-12T22:12:34.247Z,21.90
2023-03-12T22:15:01.258Z,22.70
2023-03-12T22:17:28.262Z,23.30
2023-03-12T22:19:55.409Z,23.00
2023-03-12T22:22:22.417Z,22.60
2023-03-12T22:24:49.454Z,23.30
2023-03-12T22:27:16.461Z,23.60
2023-03-12T22:29:43.695Z,23.50
2023-03-12T22:32:10.715Z,23.40
2023-03-12T22:34:37.667Z,23.60
2023-03-12T22:37:04.674Z,24.00
2023-03-12T22:39:31.678Z,23.50
2023-03-12T22:41:58.605Z,24.30
2023-03-12T22:44:25.585Z,25.30
2023-03-12T22:46:52.598Z,25.60
2023-03-12T22:49:19.618Z,25.50
2023-03-12T22:51:46.738Z,24.80
2023-03-12T22:54:13.779Z,25.00
2023-03-12T22:56:40.738Z,25.50
2023-03-12T22:59:07.763Z,25.50
2023-03-12T23:01:34.708Z,25.00
2023-03-12T23:04:04.055Z,24.80
2023-03-12T23:06:31.574Z,24.40
2023-03-12T23:08:59.009Z,24.70
2023-03-12T23:11:29.706Z,25.20
2023-03-12T23:13:56.954Z,25.60
2023-03-12T23:16:26.156Z,25.70
2023-03-12T23:18:53.362Z,25.60
2023-03-12T23:21:22.828Z,25.40
2023-03-12T23:23:50.521Z,25.30
2023-03-12T23:26:26.760Z,25.80
2023-03-12T23:28:55.313Z,26.10
2023-03-12T23:31:22.814Z,25.80
2023-03-12T23:33:49.850Z,25.90
2023-03-12T23:36:19.108Z,25.30
2023-03-12T23:38:46.990Z,25.40
2023-03-12T23:41:20.281Z,25.10
2023-03-12T23:43:47.442Z,25.00
2023-03-12T23:46:16.974Z,24.80
2023-03-12T23:48:45.687Z,24.80
2023-03-12T23:51:19.167Z,25.20
2023-03-12T23:53:48.787Z,25.50
2023-03-12T23:56:18.169Z,25.10
2023-03-12T23:58:45.801Z,25.30
